Time;durP1;ratioP1;P1;durP2;ratioP2;P2;SDS_P1;SDS_P2;PMS_P1;PMS_P2;Temp;Humidity;BMP_temperature;BMP_pressure;BME280_temperature;BME280_humidity;BME280_pressure;Samples;Min_cycle;Max_cycle;Signal;HPM_P1;HPM_P2
2021/08/31 00:01:47;;;;;;;12.20;6.33;;;;;;;;;;10393876;28;20244;-71
2021/08/31 00:06:51;;;;;;;12.93;6.70;;;;;;;;;;10396425;28;20217;-72
2021/08/31 00:11:54;;;;;;;13.47;6.73;;;;;;;;;;10389697;28;20194;-71
2021/08/31 00:16:57;;;;;;;14.63;7.40;;;;;;;;;;10398787;28;20625;-71
2021/08/31 00:22:01;;;;;;;13.53;6.70;;;;;;;;;;10398622;28;20206;-70
2021/08/31 00:27:24;;;;;;;17.30;7.70;;;;;;;;;;10396448;28;20574;-72
2021/08/31 00:32:47;;;;;;;16.07;7.80;;;;;;;;;;10399738;28;20209;-71
2021/08/31 00:37:51;;;;;;;15.03;7.53;;;;;;;;;;10394814;28;20584;-72
2021/08/31 00:42:54;;;;;;;14.43;7.07;;;;;;;;;;10396630;28;20197;-72
2021/08/31 00:47:58;;;;;;;13.10;6.80;;;;;;;;;;10395389;28;20771;-70
2021/08/31 00:53:03;;;;;;;15.60;7.73;;;;;;;;;;10396432;28;20249;-72
2021/08/31 00:58:06;;;;;;;14.57;7.50;;;;;;;;;;10393929;28;20245;-72
2021/08/31 01:03:08;;;;;;;16.53;8.23;;;;;;;;;;10396167;28;20218;-71
2021/08/31 01:08:13;;;;;;;15.83;8.30;;;;;;;;;;10393244;28;20210;-72
2021/08/31 01:13:32;;;;;;;16.50;8.77;;;;;;;;;;10397377;28;20328;-72
2021/08/31 01:18:35;;;;;;;17.97;8.97;;;;;;;;;;10396743;28;20240;-72
2021/08/31 01:23:39;;;;;;;17.80;9.23;;;;;;;;;;10398759;28;20423;-73
2021/08/31 01:28:44;;;;;;;17.57;8.60;;;;;;;;;;10397866;28;20194;-72
2021/08/31 01:33:47;;;;;;;18.07;8.73;;;;;;;;;;10393401;28;20224;-72
2021/08/31 01:38:50;;;;;;;19.37;8.57;;;;;;;;;;10396615;28;20205;-73
2021/08/31 01:43:54;;;;;;;17.53;8.77;;;;;;;;;;10399910;28;20222;-72
2021/08/31 01:48:57;;;;;;;17.40;8.47;;;;;;;;;;10407065;28;20291;-72
2021/08/31 01:53:59;;;;;;;15.50;8.20;;;;;;;;;;10405446;28;20476;-72
2021/08/31 01:59:04;;;;;;;16.70;8.53;;;;;;;;;;10405030;28;20202;-73
2021/08/31 02:04:07;;;;;;;17.37;8.80;;;;;;;;;;10402427;28;20221;-73
2021/08/31 02:09:09;;;;;;;16.50;8.60;;;;;;;;;;10404037;28;20202;-73
2021/08/31 02:14:14;;;;;;;21.37;8.57;;;;;;;;;;10408169;28;20224;-73
2021/08/31 02:19:16;;;;;;;17.40;8.73;;;;;;;;;;10403329;28;20194;-70
2021/08/31 02:24:19;;;;;;;14.90;8.30;;;;;;;;;;10395738;28;20214;-72
2021/08/31 02:29:25;;;;;;;16.23;8.43;;;;;;;;;;10402077;28;20263;-73
2021/08/31 02:34:27;;;;;;;14.90;8.60;;;;;;;;;;10405087;28;20305;-71
2021/08/31 02:39:30;;;;;;;16.93;8.27;;;;;;;;;;10399844;28;20343;-70
2021/08/31 02:44:35;;;;;;;15.27;8.43;;;;;;;;;;10399626;28;20229;-71
2021/08/31 02:49:37;;;;;;;15.53;7.80;;;;;;;;;;10400593;28;20720;-73
2021/08/31 02:54:40;;;;;;;14.80;7.37;;;;;;;;;;10401772;28;20240;-73
2021/08/31 02:59:44;;;;;;;13.87;7.00;;;;;;;;;;10401123;28;20275;-73
2021/08/31 03:04:47;;;;;;;14.80;7.40;;;;;;;;;;10400091;28;20293;-73
2021/08/31 03:09:50;;;;;;;12.73;7.27;;;;;;;;;;10400063;28;20562;-73
2021/08/31 03:14:54;;;;;;;13.33;6.60;;;;;;;;;;10402818;28;20304;-72
2021/08/31 03:19:57;;;;;;;12.50;6.87;;;;;;;;;;10393309;28;20190;-72
2021/08/31 03:25:00;;;;;;;12.53;6.60;;;;;;;;;;10400130;28;20241;-73
2021/08/31 03:30:05;;;;;;;11.83;6.20;;;;;;;;;;10399691;28;20676;-73
2021/08/31 03:35:08;;;;;;;11.30;5.77;;;;;;;;;;10400356;28;20245;-72
2021/08/31 03:40:11;;;;;;;13.33;6.27;;;;;;;;;;10398500;28;20230;-73
2021/08/31 03:45:16;;;;;;;13.10;6.20;;;;;;;;;;10392950;28;20213;-73
2021/08/31 03:50:18;;;;;;;14.30;6.40;;;;;;;;;;10397592;28;20696;-74
2021/08/31 03:55:21;;;;;;;15.83;7.33;;;;;;;;;;10398307;28;20505;-72
2021/08/31 04:00:26;;;;;;;15.17;7.13;;;;;;;;;;10400885;28;20531;-74
2021/08/31 04:05:29;;;;;;;13.20;6.80;;;;;;;;;;10400321;28;20210;-71
2021/08/31 04:10:32;;;;;;;16.20;7.83;;;;;;;;;;10399581;28;20228;-73
2021/08/31 04:15:36;;;;;;;13.57;7.13;;;;;;;;;;10397690;28;20237;-72
2021/08/31 04:20:39;;;;;;;14.40;7.30;;;;;;;;;;10400747;28;20236;-69
2021/08/31 04:25:42;;;;;;;14.17;7.17;;;;;;;;;;10400375;28;20239;-70
2021/08/31 04:30:46;;;;;;;17.30;7.83;;;;;;;;;;10400463;28;20202;-71
2021/08/31 04:35:49;;;;;;;15.43;8.17;;;;;;;;;;10398392;28;20681;-73
2021/08/31 04:40:52;;;;;;;17.23;8.23;;;;;;;;;;10396464;28;20197;-73
2021/08/31 04:45:56;;;;;;;14.53;6.87;;;;;;;;;;10397155;28;20297;-73
2021/08/31 04:50:59;;;;;;;15.90;7.73;;;;;;;;;;10395942;28;20611;-74
2021/08/31 04:56:02;;;;;;;13.23;7.23;;;;;;;;;;10399625;28;20256;-74
2021/08/31 05:01:06;;;;;;;14.93;7.77;;;;;;;;;;10399842;28;20611;-70
2021/08/31 05:06:09;;;;;;;13.10;7.30;;;;;;;;;;10398065;28;20221;-73
2021/08/31 05:11:12;;;;;;;13.53;7.50;;;;;;;;;;10395110;28;20537;-71
2021/08/31 05:16:17;;;;;;;14.77;7.73;;;;;;;;;;10404591;28;20213;-72
2021/08/31 05:21:20;;;;;;;12.90;7.07;;;;;;;;;;10404577;28;20256;-72
2021/08/31 05:26:23;;;;;;;13.60;6.90;;;;;;;;;;10401052;28;20232;-71
2021/08/31 05:31:27;;;;;;;13.03;6.57;;;;;;;;;;10406051;28;20221;-70
2021/08/31 05:36:30;;;;;;;12.60;6.60;;;;;;;;;;10401410;28;20633;-72
2021/08/31 05:41:33;;;;;;;13.27;6.63;;;;;;;;;;10401918;28;20197;-69
2021/08/31 05:46:37;;;;;;;13.80;7.30;;;;;;;;;;10402960;28;20261;-73
2021/08/31 05:51:40;;;;;;;14.40;7.53;;;;;;;;;;10402287;28;20237;-72
2021/08/31 05:56:43;;;;;;;14.13;7.60;;;;;;;;;;10405681;28;20213;-73
2021/08/31 06:01:47;;;;;;;12.77;7.00;;;;;;;;;;10402329;28;20615;-72
2021/08/31 06:07:10;;;;;;;13.43;7.60;;;;;;;;;;10404722;28;20704;-72
2021/08/31 06:12:14;;;;;;;13.93;7.30;;;;;;;;;;10402643;28;20642;-70
2021/08/31 06:17:19;;;;;;;14.83;7.73;;;;;;;;;;10403468;28;21199;-72
2021/08/31 06:22:22;;;;;;;14.63;7.17;;;;;;;;;;10404425;28;20685;-72
2021/08/31 06:27:25;;;;;;;14.30;7.23;;;;;;;;;;10398321;28;20700;-73
2021/08/31 06:32:29;;;;;;;15.57;7.90;;;;;;;;;;10402030;28;20205;-71
2021/08/31 06:37:52;;;;;;;14.33;7.70;;;;;;;;;;10402811;28;20621;-73
2021/08/31 06:42:55;;;;;;;14.73;7.60;;;;;;;;;;10404311;28;20200;-73
2021/08/31 06:47:59;;;;;;;14.70;8.37;;;;;;;;;;10399298;28;20588;-73
2021/08/31 06:53:02;;;;;;;14.60;7.90;;;;;;;;;;10402665;28;20221;-72
2021/08/31 06:58:04;;;;;;;15.70;8.50;;;;;;;;;;10397695;28;20197;-73
2021/08/31 07:03:09;;;;;;;15.97;8.63;;;;;;;;;;10402176;28;20217;-72
2021/08/31 07:08:12;;;;;;;15.67;8.00;;;;;;;;;;10402067;28;20208;-72
2021/08/31 07:13:15;;;;;;;17.00;8.10;;;;;;;;;;10422571;28;20224;-69
2021/08/31 07:18:20;;;;;;;15.83;7.93;;;;;;;;;;10402331;28;20197;-73
2021/08/31 07:23:23;;;;;;;11.90;5.90;;;;;;;;;;10400827;28;20243;-74
2021/08/31 07:28:25;;;;;;;13.20;7.50;;;;;;;;;;10400940;28;20213;-73
2021/08/31 07:33:30;;;;;;;11.93;6.70;;;;;;;;;;10400753;28;20226;-72
2021/08/31 07:38:32;;;;;;;13.33;7.00;;;;;;;;;;10401810;28;20281;-71
2021/08/31 07:43:35;;;;;;;13.23;7.13;;;;;;;;;;10401262;28;20694;-73
2021/08/31 07:48:39;;;;;;;13.83;8.13;;;;;;;;;;10402285;28;20413;-72
2021/08/31 07:53:42;;;;;;;16.07;8.47;;;;;;;;;;10402418;28;20558;-73
2021/08/31 07:58:45;;;;;;;15.20;8.03;;;;;;;;;;10401437;28;20190;-73
2021/08/31 08:03:49;;;;;;;12.70;6.87;;;;;;;;;;10399070;28;20293;-73
2021/08/31 08:08:52;;;;;;;15.33;8.17;;;;;;;;;;10397272;28;20236;-74
2021/08/31 08:13:55;;;;;;;12.33;7.00;;;;;;;;;;10399385;28;20550;-72
2021/08/31 08:18:59;;;;;;;12.30;7.10;;;;;;;;;;10398985;28;20190;-73
2021/08/31 08:24:02;;;;;;;13.07;7.63;;;;;;;;;;10399165;28;20594;-72
2021/08/31 08:29:04;;;;;;;11.13;6.10;;;;;;;;;;10392956;28;20201;-71
2021/08/31 08:34:09;;;;;;;11.60;6.50;;;;;;;;;;10396234;28;20284;-72
2021/08/31 08:39:11;;;;;;;12.33;6.67;;;;;;;;;;10397933;28;20251;-73
2021/08/31 08:44:14;;;;;;;11.47;6.30;;;;;;;;;;10396943;28;20270;-73
2021/08/31 08:49:18;;;;;;;13.43;6.53;;;;;;;;;;10396461;28;20233;-74
2021/08/31 08:54:22;;;;;;;11.60;6.83;;;;;;;;;;10399508;28;20217;-75
2021/08/31 08:59:25;;;;;;;10.93;6.70;;;;;;;;;;10394917;28;20530;-71
2021/08/31 09:04:46;;;;;;;10.63;5.50;;;;;;;;;;10399265;28;20765;-72
2021/08/31 09:09:49;;;;;;;9.67;5.53;;;;;;;;;;10394325;28;20213;-73
2021/08/31 09:14:53;;;;;;;9.97;5.37;;;;;;;;;;10399904;28;20317;-73
2021/08/31 09:19:57;;;;;;;8.67;5.03;;;;;;;;;;10397396;28;20213;-73
2021/08/31 09:25:01;;;;;;;8.87;5.27;;;;;;;;;;10400595;28;20245;-73
2021/08/31 09:30:24;;;;;;;7.87;4.63;;;;;;;;;;10393658;28;20494;-72
2021/08/31 09:35:31;;;;;;;9.10;5.10;;;;;;;;;;10391733;28;20652;-72
2021/08/31 09:40:37;;;;;;;8.67;4.90;;;;;;;;;;10394619;28;20254;-74
2021/08/31 09:45:42;;;;;;;7.80;4.70;;;;;;;;;;10395876;28;20945;-74
2021/08/31 09:50:47;;;;;;;7.60;4.40;;;;;;;;;;10396005;28;20262;-71
2021/08/31 09:55:51;;;;;;;7.32;4.55;;;;;;;;;;10397813;28;20273;-72
2021/08/31 10:00:55;;;;;;;7.05;4.50;;;;;;;;;;10398743;28;20538;-73
2021/08/31 10:06:00;;;;;;;6.07;4.03;;;;;;;;;;10401727;28;20222;-74
2021/08/31 10:11:04;;;;;;;8.43;4.63;;;;;;;;;;10401611;28;20225;-75
2021/08/31 10:16:07;;;;;;;9.68;4.82;;;;;;;;;;10406167;28;20632;-75
2021/08/31 10:21:13;;;;;;;6.30;3.50;;;;;;;;;;10403347;28;20554;-72
2021/08/31 10:26:25;;;;;;;6.72;3.70;;;;;;;;;;10405490;28;20218;-71
2021/08/31 10:31:28;;;;;;;6.60;3.90;;;;;;;;;;10392839;28;20271;-72
2021/08/31 10:36:36;;;;;;;9.07;4.93;;;;;;;;;;10401198;28;20709;-72
2021/08/31 10:41:48;;;;;;;6.60;3.23;;;;;;;;;;10397394;28;20201;-73
2021/08/31 10:47:05;;;;;;;8.00;3.57;;;;;;;;;;10401524;28;20206;-73
2021/08/31 10:52:09;;;;;;;7.40;3.50;;;;;;;;;;10394064;28;20185;-71
2021/08/31 10:57:32;;;;;;;7.83;3.47;;;;;;;;;;10393823;28;20283;-73
2021/08/31 11:02:53;;;;;;;7.50;3.40;;;;;;;;;;10394323;28;20195;-74
2021/08/31 11:08:11;;;;;;;6.33;3.60;;;;;;;;;;10396530;28;20206;-74
2021/08/31 11:13:16;;;;;;;6.57;3.37;;;;;;;;;;10391017;28;20550;-72
2021/08/31 11:18:20;;;;;;;7.13;3.50;;;;;;;;;;10396976;28;20569;-71
2021/08/31 11:23:23;;;;;;;6.60;3.60;;;;;;;;;;10398932;28;20276;-73
2021/08/31 11:28:29;;;;;;;6.70;3.53;;;;;;;;;;10395860;28;20333;-74
2021/08/31 11:33:32;;;;;;;6.27;3.30;;;;;;;;;;10392938;28;20318;-74
2021/08/31 11:38:35;;;;;;;7.60;3.57;;;;;;;;;;10389970;28;20210;-73
2021/08/31 11:43:40;;;;;;;5.87;2.97;;;;;;;;;;10396274;28;20367;-73
2021/08/31 11:48:44;;;;;;;7.60;3.60;;;;;;;;;;10397884;28;20249;-74
2021/08/31 11:53:48;;;;;;;5.43;3.03;;;;;;;;;;10395230;28;20681;-73
2021/08/31 11:58:53;;;;;;;6.23;3.17;;;;;;;;;;10391839;28;20193;-74
2021/08/31 12:03:55;;;;;;;6.07;3.43;;;;;;;;;;10397753;28;20209;-74
2021/08/31 12:08:58;;;;;;;6.57;3.33;;;;;;;;;;10395046;28;20214;-73
2021/08/31 12:14:02;;;;;;;6.73;3.40;;;;;;;;;;10400820;28;20577;-74
2021/08/31 12:19:15;;;;;;;6.18;3.50;;;;;;;;;;10395866;28;20605;-71
2021/08/31 12:24:18;;;;;;;6.55;3.60;;;;;;;;;;10397763;28;20214;-73
2021/08/31 12:29:53;;;;;;;5.70;3.40;;;;;;;;;;10392843;28;20202;-74
2021/08/31 12:34:56;;;;;;;7.70;4.15;;;;;;;;;;10390384;28;20221;-73
2021/08/31 12:40:26;;;;;;;7.35;3.60;;;;;;;;;;10392218;28;20190;-75
2021/08/31 12:45:30;;;;;;;5.55;3.38;;;;;;;;;;10379408;28;20271;-72
2021/08/31 12:50:33;;;;;;;5.97;3.30;;;;;;;;;;10391338;28;20765;-73
2021/08/31 12:55:38;;;;;;;5.78;3.50;;;;;;;;;;10400220;28;20297;-72
2021/08/31 13:00:42;;;;;;;5.93;2.92;;;;;;;;;;10400283;28;20240;-71
2021/08/31 13:05:45;;;;;;;5.45;3.45;;;;;;;;;;10417711;28;20287;-71
2021/08/31 13:10:48;;;;;;;5.43;3.03;;;;;;;;;;10391656;28;20217;-74
2021/08/31 13:15:52;;;;;;;8.32;3.67;;;;;;;;;;10393472;28;20665;-74
2021/08/31 13:20:55;;;;;;;6.72;3.53;;;;;;;;;;10390705;28;20200;-73
2021/08/31 13:25:58;;;;;;;6.80;3.22;;;;;;;;;;10393504;28;20268;-72
2021/08/31 13:31:02;;;;;;;6.07;3.20;;;;;;;;;;10398447;28;21241;-74
2021/08/31 13:36:05;;;;;;;5.82;3.30;;;;;;;;;;10395696;28;20221;-73
2021/08/31 13:41:08;;;;;;;5.22;2.78;;;;;;;;;;10397610;28;20281;-73
2021/08/31 13:46:12;;;;;;;6.03;3.20;;;;;;;;;;10402961;28;20255;-75
2021/08/31 13:51:15;;;;;;;4.78;2.72;;;;;;;;;;10397668;28;20221;-75
2021/08/31 13:56:18;;;;;;;5.57;3.03;;;;;;;;;;10398850;28;20229;-72
2021/08/31 14:01:22;;;;;;;5.43;3.03;;;;;;;;;;10402245;28;20348;-73
2021/08/31 14:06:27;;;;;;;5.95;3.22;;;;;;;;;;10400766;28;20209;-73
2021/08/31 14:11:30;;;;;;;8.18;3.47;;;;;;;;;;10395898;28;20638;-73
2021/08/31 14:16:34;;;;;;;6.43;3.42;;;;;;;;;;10399308;28;20229;-72
2021/08/31 14:21:37;;;;;;;7.03;3.17;;;;;;;;;;10402992;28;20243;-72
2021/08/31 14:26:40;;;;;;;6.10;2.97;;;;;;;;;;10402083;28;20229;-71
2021/08/31 14:31:45;;;;;;;7.22;3.78;;;;;;;;;;10395215;28;20229;-72
2021/08/31 14:36:48;;;;;;;5.97;3.20;;;;;;;;;;10398225;28;20225;-72
2021/08/31 14:41:50;;;;;;;7.03;3.50;;;;;;;;;;10389998;28;20259;-68
2021/08/31 14:46:56;;;;;;;6.60;3.53;;;;;;;;;;10399508;28;20225;-71
2021/08/31 14:51:58;;;;;;;5.82;3.22;;;;;;;;;;10396484;28;20605;-70
2021/08/31 14:57:01;;;;;;;6.38;3.35;;;;;;;;;;10401661;28;20678;-73
2021/08/31 15:02:05;;;;;;;6.10;3.38;;;;;;;;;;10399901;28;20240;-71
2021/08/31 15:07:09;;;;;;;7.35;3.35;;;;;;;;;;10398526;28;20249;-71
2021/08/31 15:12:11;;;;;;;6.50;3.00;;;;;;;;;;10394485;28;20231;-71
2021/08/31 15:17:16;;;;;;;5.70;3.20;;;;;;;;;;10395165;28;20210;-71
2021/08/31 15:22:18;;;;;;;6.47;3.50;;;;;;;;;;10397740;28;20728;-70
2021/08/31 15:27:22;;;;;;;7.82;3.50;;;;;;;;;;10398007;28;20217;-71
2021/08/31 15:32:27;;;;;;;6.82;3.55;;;;;;;;;;10399388;28;20210;-71
2021/08/31 15:37:29;;;;;;;9.18;5.55;;;;;;;;;;10397817;28;20296;-73
2021/08/31 15:42:32;;;;;;;8.93;4.40;;;;;;;;;;10398006;28;20208;-72
2021/08/31 15:47:37;;;;;;;8.27;4.22;;;;;;;;;;10399034;28;20279;-69
2021/08/31 15:52:39;;;;;;;6.60;3.63;;;;;;;;;;10397356;28;20749;-71
2021/08/31 15:57:42;;;;;;;8.20;4.18;;;;;;;;;;10390578;28;20268;-72
2021/08/31 16:02:46;;;;;;;7.90;4.25;;;;;;;;;;10393742;28;20244;-69
2021/08/31 16:07:50;;;;;;;6.88;3.85;;;;;;;;;;10393193;28;20197;-73
2021/08/31 16:12:53;;;;;;;7.77;3.70;;;;;;;;;;10391219;28;20675;-72
2021/08/31 16:17:57;;;;;;;6.93;3.50;;;;;;;;;;10394795;28;20229;-72
2021/08/31 16:23:00;;;;;;;7.73;3.97;;;;;;;;;;10398009;28;20189;-71
2021/08/31 16:28:03;;;;;;;9.13;5.07;;;;;;;;;;10387515;28;20251;-72
2021/08/31 16:33:09;;;;;;;8.20;4.30;;;;;;;;;;10394839;28;20326;-70
2021/08/31 16:38:12;;;;;;;9.77;4.73;;;;;;;;;;10399061;28;20226;-68
2021/08/31 16:43:15;;;;;;;6.97;3.63;;;;;;;;;;10395667;28;20205;-71
2021/08/31 16:48:20;;;;;;;7.03;3.73;;;;;;;;;;10393608;28;20558;-71
2021/08/31 16:53:23;;;;;;;7.37;3.73;;;;;;;;;;10409375;28;20662;-73
2021/08/31 16:58:26;;;;;;;8.87;4.90;;;;;;;;;;10392268;28;20193;-72
2021/08/31 17:03:31;;;;;;;7.53;4.53;;;;;;;;;;10393619;28;20222;-71
2021/08/31 17:08:33;;;;;;;8.43;4.70;;;;;;;;;;10396061;28;20236;-71
2021/08/31 17:13:36;;;;;;;8.23;4.50;;;;;;;;;;10392025;28;20229;-71
2021/08/31 17:18:40;;;;;;;7.50;4.07;;;;;;;;;;10396737;28;20190;-72
2021/08/31 17:23:44;;;;;;;12.07;6.83;;;;;;;;;;10395627;28;20217;-71
2021/08/31 17:28:47;;;;;;;9.40;3.63;;;;;;;;;;10395360;28;20194;-73
2021/08/31 17:33:55;;;;;;;15.10;9.07;;;;;;;;;;10390834;28;20625;-71
2021/08/31 17:38:57;;;;;;;9.30;4.33;;;;;;;;;;10389972;28;20658;-71
2021/08/31 17:44:00;;;;;;;12.17;7.60;;;;;;;;;;10388476;28;20205;-71
2021/08/31 17:49:04;;;;;;;8.40;4.80;;;;;;;;;;10395296;28;20251;-69
2021/08/31 17:54:12;;;;;;;11.27;6.57;;;;;;;;;;10395275;28;20267;-72
2021/08/31 17:59:14;;;;;;;12.43;8.03;;;;;;;;;;10398367;28;20186;-72
2021/08/31 18:04:19;;;;;;;15.77;10.77;;;;;;;;;;10397828;28;20226;-72
2021/08/31 18:09:21;;;;;;;8.17;4.33;;;;;;;;;;10395387;28;20206;-72
2021/08/31 18:14:24;;;;;;;11.20;6.83;;;;;;;;;;10396311;28;20244;-71
2021/08/31 18:19:28;;;;;;;9.63;5.47;;;;;;;;;;10392335;28;20252;-73
2021/08/31 18:24:31;;;;;;;15.20;9.93;;;;;;;;;;10399433;28;20214;-72
2021/08/31 18:29:34;;;;;;;12.27;5.77;;;;;;;;;;10414330;28;20211;-72
2021/08/31 18:34:38;;;;;;;10.23;5.40;;;;;;;;;;10404207;28;20225;-72
2021/08/31 18:39:41;;;;;;;14.20;8.40;;;;;;;;;;10400363;28;20234;-71
2021/08/31 18:44:44;;;;;;;36.00;28.03;;;;;;;;;;10400107;28;20725;-71
2021/08/31 18:49:48;;;;;;;9.23;5.00;;;;;;;;;;10398793;28;20257;-72
2021/08/31 18:54:50;;;;;;;9.47;4.80;;;;;;;;;;10400919;28;20572;-70
2021/08/31 18:59:53;;;;;;;14.43;8.87;;;;;;;;;;10399652;28;20193;-69
2021/08/31 19:04:58;;;;;;;10.20;5.37;;;;;;;;;;10402397;28;20555;-71
2021/08/31 19:10:01;;;;;;;11.67;6.60;;;;;;;;;;10399860;28;20690;-71
2021/08/31 19:15:04;;;;;;;11.07;7.13;;;;;;;;;;10400063;28;20705;-69
2021/08/31 19:20:09;;;;;;;9.93;5.60;;;;;;;;;;10404997;28;20233;-72
2021/08/31 19:25:12;;;;;;;10.20;5.97;;;;;;;;;;10398227;28;20712;-71
2021/08/31 19:30:15;;;;;;;9.40;5.23;;;;;;;;;;10399802;28;20206;-70
2021/08/31 19:35:19;;;;;;;9.87;5.90;;;;;;;;;;10397874;28;20218;-71
2021/08/31 19:40:22;;;;;;;10.83;5.97;;;;;;;;;;10401863;28;20194;-73
2021/08/31 19:45:25;;;;;;;11.47;5.90;;;;;;;;;;10399007;28;20220;-72
2021/08/31 19:50:29;;;;;;;11.37;5.20;;;;;;;;;;10397413;28;20279;-70
2021/08/31 19:55:32;;;;;;;10.97;5.40;;;;;;;;;;10398417;28;20218;-71
2021/08/31 20:00:35;;;;;;;10.50;5.70;;;;;;;;;;10398795;28;20344;-72
2021/08/31 20:05:39;;;;;;;9.40;5.10;;;;;;;;;;10398722;28;20224;-72
2021/08/31 20:10:42;;;;;;;9.80;5.67;;;;;;;;;;10400917;28;20707;-71
2021/08/31 20:15:44;;;;;;;10.00;5.50;;;;;;;;;;10399331;28;20213;-69
2021/08/31 20:20:49;;;;;;;10.63;5.53;;;;;;;;;;10396834;28;20289;-71
2021/08/31 20:25:52;;;;;;;10.37;5.60;;;;;;;;;;10392833;28;20706;-70
2021/08/31 20:30:55;;;;;;;9.63;6.00;;;;;;;;;;10392777;28;20232;-71
2021/08/31 20:35:59;;;;;;;11.90;6.43;;;;;;;;;;10393802;28;20217;-71
2021/08/31 20:41:02;;;;;;;12.40;5.90;;;;;;;;;;10395474;28;20186;-70
2021/08/31 20:46:05;;;;;;;10.00;5.57;;;;;;;;;;10392249;28;20228;-71
2021/08/31 20:51:09;;;;;;;9.53;5.80;;;;;;;;;;10393962;28;20209;-69
2021/08/31 20:56:12;;;;;;;10.03;6.00;;;;;;;;;;10392394;28;20566;-71
2021/08/31 21:01:15;;;;;;;9.03;5.43;;;;;;;;;;10395218;28;20189;-70
2021/08/31 21:06:20;;;;;;;9.53;5.07;;;;;;;;;;10398904;28;20593;-72
2021/08/31 21:11:22;;;;;;;9.13;5.57;;;;;;;;;;10408020;28;20217;-72
2021/08/31 21:16:25;;;;;;;9.37;5.53;;;;;;;;;;10396220;28;20218;-71
2021/08/31 21:21:29;;;;;;;9.17;5.20;;;;;;;;;;10397317;28;20193;-70
2021/08/31 21:26:32;;;;;;;9.83;5.47;;;;;;;;;;10395578;28;20304;-72
2021/08/31 21:31:35;;;;;;;10.10;5.37;;;;;;;;;;10397986;28;20713;-71
2021/08/31 21:36:39;;;;;;;13.00;5.90;;;;;;;;;;10394543;28;20316;-71
2021/08/31 21:41:42;;;;;;;10.37;5.63;;;;;;;;;;10399095;28;20197;-70
2021/08/31 21:46:45;;;;;;;10.67;5.60;;;;;;;;;;10398654;28;20255;-73
2021/08/31 21:51:49;;;;;;;10.47;6.30;;;;;;;;;;10398135;28;20697;-72
2021/08/31 21:56:52;;;;;;;11.13;6.40;;;;;;;;;;10395189;28;20214;-70
2021/08/31 22:01:55;;;;;;;11.30;6.37;;;;;;;;;;10403296;28;20589;-72
2021/08/31 22:06:59;;;;;;;9.97;5.77;;;;;;;;;;10404167;28;20609;-71
2021/08/31 22:12:02;;;;;;;11.37;6.63;;;;;;;;;;10402381;28;20209;-70
2021/08/31 22:17:04;;;;;;;10.57;6.20;;;;;;;;;;10405083;28;20244;-70
2021/08/31 22:22:09;;;;;;;9.53;5.73;;;;;;;;;;10404202;28;20642;-68
2021/08/31 22:27:12;;;;;;;9.77;5.87;;;;;;;;;;10400726;28;20221;-70
2021/08/31 22:32:14;;;;;;;10.00;6.00;;;;;;;;;;10399361;28;20202;-71
2021/08/31 22:37:19;;;;;;;9.60;6.03;;;;;;;;;;10404547;28;20279;-71
2021/08/31 22:42:21;;;;;;;10.37;6.50;;;;;;;;;;10403694;28;20685;-71
2021/08/31 22:47:25;;;;;;;11.13;6.33;;;;;;;;;;10404287;28;20214;-71
2021/08/31 22:52:29;;;;;;;10.93;6.50;;;;;;;;;;10405136;28;20280;-70
2021/08/31 22:57:32;;;;;;;10.17;5.80;;;;;;;;;;10404145;28;20654;-70
2021/08/31 23:02:34;;;;;;;10.40;5.60;;;;;;;;;;10404979;28;20194;-71
2021/08/31 23:07:39;;;;;;;10.37;6.33;;;;;;;;;;10402061;28;20209;-71
2021/08/31 23:12:42;;;;;;;10.50;5.90;;;;;;;;;;10401896;28;20704;-72
2021/08/31 23:17:44;;;;;;;9.97;5.70;;;;;;;;;;10401739;28;20685;-72
2021/08/31 23:22:48;;;;;;;10.37;5.60;;;;;;;;;;10401616;28;20221;-70
2021/08/31 23:27:52;;;;;;;10.53;5.80;;;;;;;;;;10396265;28;20205;-71
2021/08/31 23:32:54;;;;;;;10.23;5.77;;;;;;;;;;10402092;28;20210;-72
2021/08/31 23:37:58;;;;;;;10.53;5.83;;;;;;;;;;10397671;28;20616;-72
2021/08/31 23:43:01;;;;;;;10.27;6.10;;;;;;;;;;10401689;28;20201;-70
2021/08/31 23:48:04;;;;;;;11.70;6.17;;;;;;;;;;10402566;28;20202;-71
2021/08/31 23:53:08;;;;;;;13.13;6.33;;;;;;;;;;10402735;28;20233;-72
2021/08/31 23:58:11;;;;;;;10.90;6.47;;;;;;;;;;10397763;28;20252;-70
